Terminal Aerodrome Forecast
Issued by NWS

Home | Current Version | Previous Version | Text Only | Print | Product List | Glossary On
Versions: 1 2 3 4 5 6 7 8 9 10 11 12 13 14 15 16 17 18 19 20 21 22
000
FTUS45 KTFX 282300
TAFGTF
TAF
KGTF 282320Z 2900/2924 02015G25KT P6SM OVC007
     FM290300 36018G28KT 4SM -SN BR SCT005 BKN015
      TEMPO 2906/2910 1SM -SN BR BKN005
     FM291200 02011KT 4SM -SN BR BKN010
     FM291800 02007KT P6SM VCSH SCT015 BKN025=

USA.gov is the U.S. government's official web portal to all federal, state and local government web resources and services.